createdAt,value
2023-05-17T00:01:28.655Z,98824.34
2023-05-17T00:03:56.768Z,98819.28
2023-05-17T00:06:24.687Z,98824.31
2023-05-17T00:08:54.063Z,98827.66
2023-05-17T00:11:22.071Z,98816.75
2023-05-17T00:13:50.031Z,98823.47
2023-05-17T00:16:17.971Z,98820.97
2023-05-17T00:18:46.162Z,98824.31
2023-05-17T00:21:14.189Z,98827.66
2023-05-17T00:23:42.130Z,98820.13
2023-05-17T00:26:11.465Z,98826.00
2023-05-17T00:28:40.330Z,98814.25
2023-05-17T00:31:08.325Z,98816.75
2023-05-17T00:33:36.423Z,98807.53
2023-05-17T00:36:04.845Z,98805.88
2023-05-17T00:38:32.938Z,98804.19
2023-05-17T00:41:00.986Z,98805.88
2023-05-17T00:43:30.451Z,98810.06
2023-05-17T00:45:58.463Z,98810.91
2023-05-17T00:48:26.938Z,98815.94
2023-05-17T00:50:56.347Z,98810.91
2023-05-17T00:53:24.699Z,98797.47
2023-05-17T00:55:54.898Z,98805.88
2023-05-17T00:58:24.047Z,98800.84
2023-05-17T01:00:55.117Z,98815.94
2023-05-17T01:03:23.633Z,98808.41
2023-05-17T01:05:52.393Z,98806.72
2023-05-17T01:08:20.438Z,98804.22
2023-05-17T01:10:58.466Z,98807.56
2023-05-17T01:13:33.206Z,98811.75
2023-05-17T01:16:11.608Z,98822.63
2023-05-17T01:18:45.901Z,98833.53
2023-05-17T01:21:35.518Z,98837.72
2023-05-17T01:24:24.501Z,98820.09
2023-05-17T01:26:55.198Z,98824.31
2023-05-17T01:29:27.722Z,98831.84
2023-05-17T01:31:58.404Z,98832.69
2023-05-17T01:34:27.177Z,98820.09
2023-05-17T01:36:55.412Z,98829.38
2023-05-17T01:39:23.322Z,98851.97
2023-05-17T01:42:01.319Z,98842.75
2023-05-17T01:44:37.965Z,98857.88
2023-05-17T01:47:13.002Z,98857.88
2023-05-17T01:49:42.759Z,98847.81
2023-05-17T01:52:17.239Z,98857.00
2023-05-17T01:54:50.084Z,98852.81
2023-05-17T01:57:21.598Z,98853.66
2023-05-17T01:59:52.859Z,98854.53
2023-05-17T02:02:22.506Z,98850.31
2023-05-17T02:04:51.574Z,98854.53
2023-05-17T02:07:19.601Z,98849.50
2023-05-17T02:09:47.606Z,98847.81
2023-05-17T02:12:16.018Z,98855.34
2023-05-17T02:14:45.408Z,98860.38
2023-05-17T02:17:13.600Z,98863.75
2023-05-17T02:19:41.699Z,98867.94
2023-05-17T02:22:09.669Z,98862.09
2023-05-17T02:24:37.578Z,98862.09
2023-05-17T02:27:07.100Z,98866.28
2023-05-17T02:29:35.198Z,98866.28
2023-05-17T02:32:06.138Z,98861.25
2023-05-17T02:34:34.327Z,98862.91
2023-05-17T02:37:02.315Z,98862.91
2023-05-17T02:39:30.263Z,98858.72
2023-05-17T02:41:58.135Z,98866.28
2023-05-17T02:44:26.190Z,98863.75
2023-05-17T02:46:54.597Z,98863.75
2023-05-17T02:49:23.987Z,98864.59
2023-05-17T02:51:51.892Z,98874.66
2023-05-17T02:54:19.886Z,98875.50
2023-05-17T02:56:47.944Z,98883.03
2023-05-17T02:59:16.068Z,98883.00
2023-05-17T03:01:44.010Z,98884.69
2023-05-17T03:04:12.671Z,98885.53
2023-05-17T03:06:43.010Z,98890.56
2023-05-17T03:09:11.175Z,98881.34
2023-05-17T03:11:39.423Z,98883.84
2023-05-17T03:14:13.524Z,98895.59
2023-05-17T03:16:41.584Z,98903.13
2023-05-17T03:19:10.144Z,98899.78
2023-05-17T03:21:40.135Z,98908.19
2023-05-17T03:24:09.684Z,98904.81
2023-05-17T03:26:38.826Z,98910.69
2023-05-17T03:29:08.704Z,98913.19
2023-05-17T03:31:37.691Z,98919.91
2023-05-17T03:34:05.923Z,98923.25
2023-05-17T03:36:35.544Z,98921.56
2023-05-17T03:39:03.514Z,98931.63
2023-05-17T03:41:33.490Z,98931.63
2023-05-17T03:44:02.421Z,98942.53
2023-05-17T03:46:31.353Z,98941.69
2023-05-17T03:48:59.771Z,98938.34
2023-05-17T03:51:27.833Z,98951.81
2023-05-17T03:53:59.456Z,98960.16
2023-05-17T03:56:28.868Z,98970.22
2023-05-17T03:58:58.158Z,98967.69
2023-05-17T04:01:26.655Z,98978.63
2023-05-17T04:03:54.682Z,98970.25
2023-05-17T04:06:23.694Z,98973.63
2023-05-17T04:08:51.724Z,98982.00
2023-05-17T04:11:23.809Z,98981.16
2023-05-17T04:13:52.040Z,98980.31
2023-05-17T04:16:22.157Z,98992.91
2023-05-17T04:18:52.753Z,98995.41
2023-05-17T04:21:20.924Z,98997.94
2023-05-17T04:23:49.297Z,99000.41
2023-05-17T04:26:17.704Z,99006.28
2023-05-17T04:28:45.781Z,98999.56
2023-05-17T04:31:16.750Z,98999.56
2023-05-17T04:33:46.927Z,99005.44
2023-05-17T04:36:14.900Z,99007.09
2023-05-17T04:38:43.998Z,99009.59
2023-05-17T04:41:16.119Z,99006.25
2023-05-17T04:43:44.595Z,99002.91
2023-05-17T04:46:20.350Z,99009.63
2023-05-17T04:48:50.110Z,99003.75
2023-05-17T04:51:18.328Z,99008.78
2023-05-17T04:53:46.444Z,99011.31
2023-05-17T04:56:18.213Z,99005.47
2023-05-17T04:58:46.187Z,99008.78
2023-05-17T05:01:14.772Z,99013.88
2023-05-17T05:03:42.936Z,99000.41
2023-05-17T05:06:16.169Z,99011.31
2023-05-17T05:08:44.353Z,99010.53
2023-05-17T05:11:13.487Z,99021.41
2023-05-17T05:13:42.380Z,99019.75
2023-05-17T05:16:10.426Z,99022.25
2023-05-17T05:18:38.892Z,99035.69
2023-05-17T05:21:09.695Z,99021.41
2023-05-17T05:23:40.573Z,99039.88
2023-05-17T05:26:08.674Z,99049.94
2023-05-17T05:28:37.310Z,99057.47
2023-05-17T05:31:05.441Z,99052.44
2023-05-17T05:33:41.704Z,99058.34
2023-05-17T05:36:10.821Z,99062.53
2023-05-17T05:38:40.153Z,99070.09
2023-05-17T05:41:08.303Z,99068.38
2023-05-17T05:43:38.277Z,99067.56
2023-05-17T05:46:07.379Z,99068.41
2023-05-17T05:48:39.396Z,99075.09
2023-05-17T05:51:08.017Z,99080.97
2023-05-17T05:53:38.046Z,99087.69
2023-05-17T05:56:08.034Z,99098.59
2023-05-17T05:58:36.002Z,99083.50
2023-05-17T06:01:06.440Z,99088.56
2023-05-17T06:03:34.675Z,99094.44
2023-05-17T06:06:02.771Z,99091.91
2023-05-17T06:08:30.768Z,99075.97
2023-05-17T06:10:58.677Z,99089.38
2023-05-17T06:13:27.981Z,99090.22
2023-05-17T06:15:55.912Z,99094.41
2023-05-17T06:18:26.328Z,99102.81
2023-05-17T06:20:54.388Z,99105.31
2023-05-17T06:23:22.322Z,99112.03
2023-05-17T06:25:50.197Z,99110.38
2023-05-17T06:28:18.643Z,99113.69
2023-05-17T06:30:47.984Z,99117.88
2023-05-17T06:33:16.001Z,99124.59
2023-05-17T06:35:55.638Z,99124.59
2023-05-17T06:38:24.608Z,99120.41
2023-05-17T06:40:53.889Z,99122.94
2023-05-17T06:43:22.600Z,99120.44
2023-05-17T06:45:51.991Z,99117.06
2023-05-17T06:48:20.239Z,99127.97
2023-05-17T06:50:48.270Z,99135.53
2023-05-17T06:53:16.346Z,99135.53
2023-05-17T06:55:44.429Z,99143.91
2023-05-17T06:58:12.490Z,99134.69
2023-05-17T07:00:44.670Z,99148.09
2023-05-17T07:03:14.040Z,99141.38
2023-05-17T07:05:42.071Z,99139.69
2023-05-17T07:08:10.049Z,99145.56
2023-05-17T07:10:37.946Z,99155.66
2023-05-17T07:13:05.893Z,99163.22
2023-05-17T07:15:33.840Z,99163.22
2023-05-17T07:18:01.918Z,99162.41
2023-05-17T07:20:31.539Z,99158.19
2023-05-17T07:22:59.475Z,99164.91
2023-05-17T07:25:27.661Z,99164.09
2023-05-17T07:27:56.041Z,99173.31
2023-05-17T07:30:24.067Z,99145.63
2023-05-17T07:32:52.109Z,99175.00
2023-05-17T07:35:21.824Z,99187.59
2023-05-17T07:37:51.464Z,99193.47
2023-05-17T07:40:19.716Z,99186.75
2023-05-17T07:42:47.659Z,99189.25
2023-05-17T07:45:15.601Z,99193.44
2023-05-17T07:47:43.658Z,99185.03
2023-05-17T07:50:12.409Z,99197.66
2023-05-17T07:52:40.479Z,99188.41
2023-05-17T07:55:11.135Z,99185.84
2023-05-17T07:57:39.033Z,99185.00
2023-05-17T08:00:11.439Z,99190.06
2023-05-17T08:02:42.587Z,99211.03
2023-05-17T08:05:11.396Z,99196.75
2023-05-17T08:07:39.392Z,99208.50
2023-05-17T08:10:09.621Z,99200.97
2023-05-17T08:12:37.611Z,99208.53
2023-05-17T08:15:06.403Z,99209.38
2023-05-17T08:17:34.507Z,99210.19
2023-05-17T08:20:02.628Z,99212.69
2023-05-17T08:22:30.541Z,99218.56
2023-05-17T08:24:58.446Z,99226.09
2023-05-17T08:27:27.707Z,99221.94
2023-05-17T08:29:59.799Z,99221.09
2023-05-17T08:32:28.134Z,99226.97
2023-05-17T08:34:56.858Z,99239.47
2023-05-17T08:37:24.998Z,99248.72
2023-05-17T08:39:53.029Z,99247.03
2023-05-17T08:42:25.200Z,99256.97
2023-05-17T08:44:54.806Z,99258.66
2023-05-17T08:47:29.960Z,99264.50
2023-05-17T08:50:00.476Z,99260.22
2023-05-17T08:52:31.190Z,99275.28
2023-05-17T08:55:00.979Z,99257.63
2023-05-17T08:57:31.393Z,99265.13
2023-05-17T09:00:01.438Z,99261.75
2023-05-17T09:02:31.735Z,99269.31
2023-05-17T09:05:00.945Z,99276.00
2023-05-17T09:07:28.831Z,99272.63
2023-05-17T09:09:58.386Z,99249.78
2023-05-17T09:12:26.387Z,99281.66
2023-05-17T09:14:54.347Z,99290.81
2023-05-17T09:17:23.851Z,99294.00
2023-05-17T09:19:52.079Z,99302.25
2023-05-17T09:22:20.677Z,99316.41
2023-05-17T09:24:48.681Z,99322.84
2023-05-17T09:27:19.538Z,99329.31
2023-05-17T09:29:48.364Z,99336.66
2023-05-17T09:32:18.014Z,99334.00
2023-05-17T09:34:48.308Z,99326.34
2023-05-17T09:37:18.250Z,99333.72
2023-05-17T09:39:47.712Z,99327.66
2023-05-17T09:42:16.964Z,99326.63
2023-05-17T09:44:51.001Z,99340.69
2023-05-17T09:47:26.373Z,99350.56
2023-05-17T09:49:57.130Z,99349.69
2023-05-17T09:52:25.826Z,99350.44
2023-05-17T09:54:54.883Z,99356.28
2023-05-17T09:57:23.351Z,99353.78
2023-05-17T09:59:53.032Z,99338.84
2023-05-17T10:02:25.886Z,99359.81
2023-05-17T10:04:58.568Z,99348.22
2023-05-17T10:07:28.214Z,99335.75
2023-05-17T10:09:57.477Z,99354.22
2023-05-17T10:12:30.476Z,99354.22
2023-05-17T10:15:00.061Z,99355.94
2023-05-17T10:17:29.901Z,99359.31
2023-05-17T10:20:00.538Z,99361.03
2023-05-17T10:22:29.910Z,99366.97
2023-05-17T10:24:58.988Z,99367.78
2023-05-17T10:27:27.908Z,99352.59
2023-05-17T10:29:56.170Z,99367.06
2023-05-17T10:32:27.125Z,99357.09
2023-05-17T10:35:09.205Z,99351.16
2023-05-17T10:37:42.361Z,99360.56
2023-05-17T10:40:13.801Z,99372.28
2023-05-17T10:42:50.895Z,99360.53
2023-05-17T10:45:22.570Z,99372.34
2023-05-17T10:47:52.583Z,99375.78
2023-05-17T10:50:24.014Z,99370.88
2023-05-17T10:52:55.804Z,99370.06
2023-05-17T10:55:26.132Z,99368.34
2023-05-17T10:58:15.901Z,99373.34
2023-05-17T11:00:47.085Z,99364.97
2023-05-17T11:03:17.914Z,99377.50
2023-05-17T11:06:12.715Z,99375.78
2023-05-17T11:09:08.808Z,99378.28
2023-05-17T11:11:36.762Z,99380.13
2023-05-17T11:14:05.982Z,99389.44
2023-05-17T11:16:37.413Z,99376.03
2023-05-17T11:19:09.695Z,99386.06
2023-05-17T11:21:46.472Z,99382.69
2023-05-17T11:24:24.698Z,99384.47
2023-05-17T11:26:55.931Z,99402.88
2023-05-17T11:29:30.159Z,99395.25
2023-05-17T11:31:58.380Z,99397.72
2023-05-17T11:34:26.984Z,99399.38
2023-05-17T11:36:56.934Z,99396.88
2023-05-17T11:39:26.940Z,99406.06
2023-05-17T11:41:56.786Z,99404.41
2023-05-17T11:44:29.465Z,99402.81
2023-05-17T11:47:04.987Z,99394.38
2023-05-17T11:49:36.311Z,99400.41
2023-05-17T11:52:06.120Z,99405.47
2023-05-17T11:54:36.441Z,99401.34
2023-05-17T11:57:05.217Z,99408.03
2023-05-17T11:59:39.842Z,99401.28
2023-05-17T12:02:08.084Z,99414.66
2023-05-17T12:04:38.403Z,99416.34
2023-05-17T12:07:10.456Z,99420.41
2023-05-17T12:09:40.331Z,99419.63
2023-05-17T12:12:09.734Z,99422.19
2023-05-17T12:14:37.903Z,99417.16
2023-05-17T12:17:09.780Z,99423.88
2023-05-17T12:19:37.874Z,99422.19
2023-05-17T12:22:12.409Z,99421.38
2023-05-17T12:24:43.519Z,99421.56
2023-05-17T12:27:12.045Z,99421.50
2023-05-17T12:29:40.765Z,99421.59
2023-05-17T12:32:11.199Z,99417.41
2023-05-17T12:34:40.621Z,99416.59
2023-05-17T12:37:10.872Z,99429.25
2023-05-17T12:39:39.479Z,99412.56
2023-05-17T12:42:10.313Z,99426.88
2023-05-17T12:44:38.598Z,99441.28
2023-05-17T12:47:07.514Z,99438.84
2023-05-17T12:49:40.085Z,99448.91
2023-05-17T12:52:08.736Z,99440.28
2023-05-17T12:54:36.796Z,99444.41
2023-05-17T12:57:15.976Z,99433.53
2023-05-17T12:59:48.045Z,99436.09
2023-05-17T13:02:16.785Z,99447.00
2023-05-17T13:04:44.780Z,99442.84
2023-05-17T13:07:13.117Z,99430.44
2023-05-17T13:09:48.094Z,99433.88
2023-05-17T13:12:22.351Z,99443.84
2023-05-17T13:14:53.175Z,99443.81
2023-05-17T13:17:26.426Z,99445.47
2023-05-17T13:19:54.519Z,99446.28
2023-05-17T13:22:23.793Z,99437.03
2023-05-17T13:24:52.044Z,99446.22
2023-05-17T13:27:21.328Z,99441.78
2023-05-17T13:29:49.258Z,99457.75
2023-05-17T13:32:17.198Z,99460.94
2023-05-17T13:34:45.143Z,99448.41
2023-05-17T13:37:13.245Z,99442.44
2023-05-17T13:39:41.701Z,99448.34
2023-05-17T13:42:10.565Z,99454.22
2023-05-17T13:44:39.958Z,99453.38
2023-05-17T13:47:09.027Z,99450.00
2023-05-17T13:49:37.334Z,99435.69
2023-05-17T13:52:08.463Z,99447.47
2023-05-17T13:54:36.720Z,99457.53
2023-05-17T13:57:05.308Z,99459.22
2023-05-17T13:59:33.290Z,99465.91
2023-05-17T14:02:04.122Z,99471.81
2023-05-17T14:04:32.013Z,99478.41
2023-05-17T14:07:00.037Z,99510.19
2023-05-17T14:09:30.471Z,99493.28
2023-05-17T14:12:00.373Z,99503.31
2023-05-17T14:14:29.232Z,99503.31
2023-05-17T14:16:57.757Z,99514.16
2023-05-17T14:19:27.217Z,99520.94
2023-05-17T14:21:55.272Z,99518.47
2023-05-17T14:24:23.333Z,99525.94
2023-05-17T14:26:51.299Z,99527.53
2023-05-17T14:29:19.179Z,99528.25
2023-05-17T14:31:47.234Z,99538.13
2023-05-17T14:34:15.262Z,99534.81
2023-05-17T14:36:44.680Z,99538.97
2023-05-17T14:39:12.662Z,99530.56
2023-05-17T14:41:41.634Z,99538.88
2023-05-17T14:44:10.784Z,99546.31
2023-05-17T14:46:38.650Z,99542.03
2023-05-17T14:49:06.939Z,99543.69
2023-05-17T14:51:34.912Z,99551.28
2023-05-17T14:54:04.475Z,99552.97
2023-05-17T14:56:32.406Z,99557.97
2023-05-17T14:59:00.582Z,99552.13
2023-05-17T15:01:29.130Z,99556.25
2023-05-17T15:03:57.362Z,99561.31
2023-05-17T15:06:26.168Z,99562.16
2023-05-17T15:08:54.957Z,99566.28
2023-05-17T15:11:24.322Z,99577.09
2023-05-17T15:13:52.867Z,99566.28
2023-05-17T15:16:21.060Z,99568.81
2023-05-17T15:18:49.223Z,99587.19
2023-05-17T15:21:19.017Z,99584.59
2023-05-17T15:23:47.923Z,99587.94
2023-05-17T15:26:15.793Z,99587.94
2023-05-17T15:28:45.324Z,99589.56
2023-05-17T15:31:13.256Z,99584.56
2023-05-17T15:33:43.205Z,99593.81
2023-05-17T15:36:13.215Z,99597.97
2023-05-17T15:38:41.383Z,99597.09
2023-05-17T15:41:14.187Z,99601.28
2023-05-17T15:43:42.629Z,99587.75
2023-05-17T15:46:12.164Z,99601.09
2023-05-17T15:48:40.221Z,99601.03
2023-05-17T15:51:08.715Z,99604.41
2023-05-17T15:53:36.589Z,99604.34
2023-05-17T15:56:04.887Z,99606.78
2023-05-17T15:58:34.053Z,99602.44
2023-05-17T16:01:04.995Z,99616.56
2023-05-17T16:03:34.482Z,99622.34
2023-05-17T16:06:04.210Z,99618.13
2023-05-17T16:08:32.633Z,99628.22
2023-05-17T16:11:02.321Z,99622.31
2023-05-17T16:13:31.048Z,99643.94
2023-05-17T16:15:59.669Z,99623.16
2023-05-17T16:18:27.714Z,99617.19
2023-05-17T16:21:01.168Z,99629.81
2023-05-17T16:23:29.119Z,99630.78
2023-05-17T16:25:57.265Z,99639.16
2023-05-17T16:28:28.340Z,99641.63
2023-05-17T16:30:56.321Z,99639.00
2023-05-17T16:33:24.311Z,99640.63
2023-05-17T16:35:52.336Z,99645.53
2023-05-17T16:38:21.690Z,99645.44
2023-05-17T16:40:49.718Z,99658.72
2023-05-17T16:43:17.569Z,99662.06
2023-05-17T16:45:46.465Z,99663.69
2023-05-17T16:48:15.057Z,99668.69
2023-05-17T16:50:43.323Z,99666.97
2023-05-17T16:53:12.204Z,99666.91
2023-05-17T16:55:42.176Z,99665.22
2023-05-17T16:58:10.132Z,99668.50
2023-05-17T17:00:40.087Z,99668.50
2023-05-17T17:03:09.822Z,99666.81
2023-05-17T17:05:38.269Z,99666.81
2023-05-17T17:08:06.232Z,99674.38
2023-05-17T17:10:35.807Z,99672.78
2023-05-17T17:13:05.105Z,99686.22
2023-05-17T17:15:33.101Z,99680.41
2023-05-17T17:18:00.989Z,99673.78
2023-05-17T17:20:29.189Z,99689.66
2023-05-17T17:22:57.448Z,99687.13
2023-05-17T17:25:25.795Z,99681.22
2023-05-17T17:27:53.739Z,99690.44
2023-05-17T17:30:23.036Z,99692.97
2023-05-17T17:32:51.000Z,99683.72
2023-05-17T17:35:19.015Z,99708.72
2023-05-17T17:37:47.038Z,99690.28
2023-05-17T17:40:15.043Z,99696.19
2023-05-17T17:42:42.940Z,99711.84
2023-05-17T17:45:11.520Z,99717.03
2023-05-17T17:47:42.089Z,99702.72
2023-05-17T17:50:10.564Z,99693.38
2023-05-17T17:52:38.424Z,99708.41
2023-05-17T17:55:10.093Z,99718.34
2023-05-17T17:57:38.001Z,99715.78
2023-05-17T18:00:17.301Z,99716.50
2023-05-17T18:02:46.623Z,99723.94
2023-05-17T18:05:14.607Z,99721.38
2023-05-17T18:07:42.505Z,99722.16
2023-05-17T18:10:11.201Z,99722.00
2023-05-17T18:12:39.116Z,99719.41
2023-05-17T18:15:07.690Z,99719.38
2023-05-17T18:17:35.840Z,99721.06
2023-05-17T18:20:06.782Z,99724.38
2023-05-17T18:22:35.392Z,99711.88
2023-05-17T18:25:03.252Z,99726.09
2023-05-17T18:27:31.117Z,99737.72
2023-05-17T18:29:58.961Z,99731.78
2023-05-17T18:32:27.060Z,99722.56
2023-05-17T18:34:55.076Z,99726.72
2023-05-17T18:37:24.463Z,99739.34
2023-05-17T18:39:53.916Z,99760.22
2023-05-17T18:42:24.754Z,99766.03
2023-05-17T18:44:52.687Z,99770.94
2023-05-17T18:47:21.358Z,99770.94
2023-05-17T18:49:49.365Z,99778.38
2023-05-17T18:52:17.660Z,99780.03
2023-05-17T18:54:47.612Z,99784.09
2023-05-17T18:57:15.813Z,99783.28
2023-05-17T18:59:43.737Z,99786.66
2023-05-17T19:02:11.577Z,99777.41
2023-05-17T19:04:40.040Z,99782.41
2023-05-17T19:07:08.166Z,99775.69
2023-05-17T19:09:36.097Z,99780.78
2023-05-17T19:12:06.249Z,99779.94
2023-05-17T19:14:34.171Z,99794.13
2023-05-17T19:17:02.160Z,99784.09
2023-05-17T19:19:31.138Z,99790.81
2023-05-17T19:22:00.714Z,99788.22
2023-05-17T19:24:28.692Z,99795.72
2023-05-17T19:26:56.612Z,99804.09
2023-05-17T19:29:27.171Z,99797.50
2023-05-17T19:31:55.179Z,99809.22
2023-05-17T19:34:23.076Z,99802.50
2023-05-17T19:36:51.022Z,99799.22
2023-05-17T19:39:19.569Z,99802.59
2023-05-17T19:41:47.562Z,99804.28
2023-05-17T19:44:15.539Z,99801.88
2023-05-17T19:46:44.836Z,99802.81
2023-05-17T19:49:13.795Z,99812.16
2023-05-17T19:51:41.724Z,99808.09
2023-05-17T19:54:09.611Z,99808.88
2023-05-17T19:56:38.131Z,99799.69
2023-05-17T19:59:06.213Z,99814.75
2023-05-17T20:01:34.342Z,99801.34
2023-05-17T20:04:03.707Z,99808.09
2023-05-17T20:06:31.717Z,99817.25
2023-05-17T20:08:59.575Z,99809.75
2023-05-17T20:11:27.513Z,99818.88
2023-05-17T20:13:55.392Z,99818.88
2023-05-17T20:16:23.256Z,99823.97
2023-05-17T20:18:51.228Z,99813.97
2023-05-17T20:21:21.693Z,99818.19
2023-05-17T20:23:51.414Z,99819.88
2023-05-17T20:26:25.647Z,99819.06
2023-05-17T20:28:54.232Z,99821.66
2023-05-17T20:31:22.235Z,99821.72
2023-05-17T20:33:50.114Z,99820.09
2023-05-17T20:36:18.420Z,99816.75
2023-05-17T20:38:49.125Z,99821.78
2023-05-17T20:41:17.337Z,99827.66
2023-05-17T20:43:46.224Z,99832.75
2023-05-17T20:46:14.528Z,99804.06
2023-05-17T20:48:45.859Z,99837.06
2023-05-17T20:51:14.252Z,99825.34
2023-05-17T20:53:42.142Z,99819.50
2023-05-17T20:56:14.151Z,99824.47
2023-05-17T20:58:42.080Z,99830.28
2023-05-17T21:01:10.088Z,99817.75
2023-05-17T21:03:39.794Z,99821.03
2023-05-17T21:06:08.298Z,99803.38
2023-05-17T21:08:36.735Z,99832.75
2023-05-17T21:11:04.714Z,99834.47
2023-05-17T21:13:34.081Z,99833.63
2023-05-17T21:16:02.124Z,99842.88
2023-05-17T21:18:30.079Z,99852.09
2023-05-17T21:20:57.973Z,99838.78
2023-05-17T21:23:25.879Z,99835.22
2023-05-17T21:25:53.832Z,99849.56
2023-05-17T21:28:21.707Z,99849.59
2023-05-17T21:30:50.982Z,99842.94
2023-05-17T21:33:18.912Z,99849.56
2023-05-17T21:35:46.886Z,99845.38
2023-05-17T21:38:14.854Z,99851.28
2023-05-17T21:40:42.989Z,99844.63
2023-05-17T21:43:11.324Z,99838.81
2023-05-17T21:45:39.810Z,99838.78
2023-05-17T21:48:09.426Z,99838.91
2023-05-17T21:50:37.435Z,99843.91
2023-05-17T21:53:05.444Z,99847.34
2023-05-17T21:55:45.789Z,99847.34
2023-05-17T21:58:21.224Z,99833.16
2023-05-17T22:00:49.156Z,99840.66
2023-05-17T22:03:18.534Z,99830.59
2023-05-17T22:05:46.506Z,99829.00
2023-05-17T22:08:14.475Z,99831.53
2023-05-17T22:10:42.418Z,99824.81
2023-05-17T22:13:12.333Z,99829.06
2023-05-17T22:15:41.399Z,99827.38
2023-05-17T22:18:12.053Z,99827.38
2023-05-17T22:20:41.583Z,99829.06
2023-05-17T22:23:09.501Z,99839.94
2023-05-17T22:25:37.489Z,99834.06
2023-05-17T22:28:05.428Z,99834.97
2023-05-17T22:30:33.655Z,99831.63
2023-05-17T22:33:03.105Z,99829.94
2023-05-17T22:35:31.115Z,99831.69
2023-05-17T22:38:00.468Z,99830.88
2023-05-17T22:40:28.779Z,99829.22
2023-05-17T22:42:58.136Z,99832.59
2023-05-17T22:45:32.810Z,99837.72
2023-05-17T22:48:02.950Z,99836.06
2023-05-17T22:50:34.539Z,99846.16
2023-05-17T22:53:05.985Z,99846.25
2023-05-17T22:55:33.996Z,99846.31
2023-05-17T22:58:01.943Z,99843.84
2023-05-17T23:00:29.849Z,99854.78
2023-05-17T23:02:57.840Z,99853.19
2023-05-17T23:05:26.380Z,99852.31
2023-05-17T23:07:54.282Z,99849.84
2023-05-17T23:10:23.998Z,99853.16
2023-05-17T23:12:52.706Z,99845.59
2023-05-17T23:15:20.811Z,99845.63
2023-05-17T23:17:48.844Z,99847.22
2023-05-17T23:20:16.860Z,99839.69
2023-05-17T23:22:44.807Z,99848.06
2023-05-17T23:25:12.746Z,99842.28
2023-05-17T23:27:44.469Z,99836.34
2023-05-17T23:30:13.050Z,99838.84
2023-05-17T23:32:42.712Z,99833.81
2023-05-17T23:35:10.829Z,99837.13
2023-05-17T23:37:38.820Z,99839.59
2023-05-17T23:40:09.322Z,99838.75
2023-05-17T23:42:37.290Z,99837.06
2023-05-17T23:45:09.256Z,99844.53
2023-05-17T23:47:40.696Z,99841.97
2023-05-17T23:50:10.186Z,99846.16
2023-05-17T23:52:38.967Z,99842.03
2023-05-17T23:55:08.045Z,99844.53
2023-05-17T23:57:36.609Z,99831.91
